sensor_id;sensor_type;location;lat;lon;timestamp;P1;durP1;ratioP1;P2;durP2;ratioP2
23015;SDS011;11674;52.428;13.584;2023-08-06T00:05:09;9.85;;;8.13;;
23015;SDS011;11674;52.428;13.584;2023-08-06T00:10:15;8.38;;;5.70;;
23015;SDS011;11674;52.428;13.584;2023-08-06T00:15:23;8.00;;;6.07;;
23015;SDS011;11674;52.428;13.584;2023-08-06T00:20:30;8.23;;;5.43;;
23015;SDS011;11674;52.428;13.584;2023-08-06T00:25:37;8.13;;;5.60;;
23015;SDS011;11674;52.428;13.584;2023-08-06T00:30:44;9.35;;;6.25;;
23015;SDS011;11674;52.428;13.584;2023-08-06T00:35:51;6.50;;;5.47;;
23015;SDS011;11674;52.428;13.584;2023-08-06T00:40:58;7.40;;;6.13;;
23015;SDS011;11674;52.428;13.584;2023-08-06T00:46:05;7.25;;;6.20;;
23015;SDS011;11674;52.428;13.584;2023-08-06T00:51:12;7.43;;;6.13;;
23015;SDS011;11674;52.428;13.584;2023-08-06T00:56:19;6.80;;;5.72;;
23015;SDS011;11674;52.428;13.584;2023-08-06T01:01:26;8.05;;;6.25;;
23015;SDS011;11674;52.428;13.584;2023-08-06T01:12:06;6.65;;;5.60;;
23015;SDS011;11674;52.428;13.584;2023-08-06T01:17:25;6.75;;;6.13;;
23015;SDS011;11674;52.428;13.584;2023-08-06T01:22:33;6.63;;;5.93;;
23015;SDS011;11674;52.428;13.584;2023-08-06T01:32:53;8.45;;;6.60;;
23015;SDS011;11674;52.428;13.584;2023-08-06T01:38:06;7.70;;;6.15;;
23015;SDS011;11674;52.428;13.584;2023-08-06T01:43:13;7.40;;;6.32;;
23015;SDS011;11674;52.428;13.584;2023-08-06T01:48:20;9.30;;;6.80;;
23015;SDS011;11674;52.428;13.584;2023-08-06T01:53:27;7.25;;;6.50;;
23015;SDS011;11674;52.428;13.584;2023-08-06T01:58:34;7.45;;;6.28;;
23015;SDS011;11674;52.428;13.584;2023-08-06T02:03:41;8.63;;;6.55;;
23015;SDS011;11674;52.428;13.584;2023-08-06T02:08:48;9.55;;;5.75;;
23015;SDS011;11674;52.428;13.584;2023-08-06T02:13:55;8.10;;;6.65;;
23015;SDS011;11674;52.428;13.584;2023-08-06T02:19:02;8.95;;;7.32;;
23015;SDS011;11674;52.428;13.584;2023-08-06T02:24:09;6.70;;;5.32;;
23015;SDS011;11674;52.428;13.584;2023-08-06T02:29:17;6.47;;;5.85;;
23015;SDS011;11674;52.428;13.584;2023-08-06T02:34:24;8.38;;;5.03;;
23015;SDS011;11674;52.428;13.584;2023-08-06T02:39:31;6.05;;;4.70;;
23015;SDS011;11674;52.428;13.584;2023-08-06T02:44:38;6.55;;;4.40;;
23015;SDS011;11674;52.428;13.584;2023-08-06T02:49:45;5.95;;;4.38;;
23015;SDS011;11674;52.428;13.584;2023-08-06T02:54:53;5.43;;;4.28;;
23015;SDS011;11674;52.428;13.584;2023-08-06T03:00:03;4.45;;;4.03;;
23015;SDS011;11674;52.428;13.584;2023-08-06T03:05:10;7.30;;;4.28;;
23015;SDS011;11674;52.428;13.584;2023-08-06T03:10:20;4.30;;;3.90;;
23015;SDS011;11674;52.428;13.584;2023-08-06T03:15:28;5.45;;;4.20;;
23015;SDS011;11674;52.428;13.584;2023-08-06T03:20:36;6.85;;;4.15;;
23015;SDS011;11674;52.428;13.584;2023-08-06T03:25:44;5.45;;;4.18;;
23015;SDS011;11674;52.428;13.584;2023-08-06T03:31:01;5.57;;;4.07;;
23015;SDS011;11674;52.428;13.584;2023-08-06T03:36:14;6.53;;;4.55;;
23015;SDS011;11674;52.428;13.584;2023-08-06T03:41:24;4.15;;;3.58;;
23015;SDS011;11674;52.428;13.584;2023-08-06T03:46:32;5.53;;;4.30;;
23015;SDS011;11674;52.428;13.584;2023-08-06T03:51:40;4.95;;;4.45;;
23015;SDS011;11674;52.428;13.584;2023-08-06T03:56:47;5.75;;;4.45;;
23015;SDS011;11674;52.428;13.584;2023-08-06T04:01:55;4.93;;;4.13;;
23015;SDS011;11674;52.428;13.584;2023-08-06T04:07:01;6.22;;;3.53;;
23015;SDS011;11674;52.428;13.584;2023-08-06T04:12:08;4.93;;;4.00;;
23015;SDS011;11674;52.428;13.584;2023-08-06T04:17:15;4.22;;;3.83;;
23015;SDS011;11674;52.428;13.584;2023-08-06T04:22:23;6.22;;;3.80;;
23015;SDS011;11674;52.428;13.584;2023-08-06T04:27:30;4.30;;;3.58;;
23015;SDS011;11674;52.428;13.584;2023-08-06T04:32:37;5.07;;;3.58;;
23015;SDS011;11674;52.428;13.584;2023-08-06T04:37:44;10.07;;;4.20;;
23015;SDS011;11674;52.428;13.584;2023-08-06T04:42:51;4.97;;;3.80;;
23015;SDS011;11674;52.428;13.584;2023-08-06T04:47:58;15.25;;;5.40;;
23015;SDS011;11674;52.428;13.584;2023-08-06T04:53:05;4.35;;;3.70;;
23015;SDS011;11674;52.428;13.584;2023-08-06T04:58:12;5.78;;;3.63;;
23015;SDS011;11674;52.428;13.584;2023-08-06T05:03:20;5.65;;;4.00;;
23015;SDS011;11674;52.428;13.584;2023-08-06T05:08:27;5.43;;;4.30;;
23015;SDS011;11674;52.428;13.584;2023-08-06T05:13:34;3.90;;;3.50;;
23015;SDS011;11674;52.428;13.584;2023-08-06T05:18:41;7.47;;;4.25;;
23015;SDS011;11674;52.428;13.584;2023-08-06T05:23:48;6.95;;;5.72;;
23015;SDS011;11674;52.428;13.584;2023-08-06T05:28:55;5.05;;;4.20;;
23015;SDS011;11674;52.428;13.584;2023-08-06T05:34:02;6.25;;;3.90;;
23015;SDS011;11674;52.428;13.584;2023-08-06T05:39:09;5.90;;;3.95;;
23015;SDS011;11674;52.428;13.584;2023-08-06T05:44:23;8.00;;;4.38;;
23015;SDS011;11674;52.428;13.584;2023-08-06T05:49:30;5.90;;;4.32;;
23015;SDS011;11674;52.428;13.584;2023-08-06T05:54:37;6.38;;;4.30;;
23015;SDS011;11674;52.428;13.584;2023-08-06T05:59:44;7.13;;;4.60;;
23015;SDS011;11674;52.428;13.584;2023-08-06T06:04:51;5.20;;;4.03;;
23015;SDS011;11674;52.428;13.584;2023-08-06T06:09:58;5.35;;;4.32;;
23015;SDS011;11674;52.428;13.584;2023-08-06T06:15:05;4.50;;;4.10;;
23015;SDS011;11674;52.428;13.584;2023-08-06T06:20:12;7.57;;;5.10;;
23015;SDS011;11674;52.428;13.584;2023-08-06T06:25:19;4.80;;;4.38;;
23015;SDS011;11674;52.428;13.584;2023-08-06T06:30:26;10.52;;;4.90;;
23015;SDS011;11674;52.428;13.584;2023-08-06T06:35:33;7.72;;;5.45;;
23015;SDS011;11674;52.428;13.584;2023-08-06T06:40:40;7.47;;;5.43;;
23015;SDS011;11674;52.428;13.584;2023-08-06T06:45:52;8.55;;;5.60;;
23015;SDS011;11674;52.428;13.584;2023-08-06T06:50:59;9.85;;;7.18;;
23015;SDS011;11674;52.428;13.584;2023-08-06T06:56:06;8.70;;;6.95;;
23015;SDS011;11674;52.428;13.584;2023-08-06T07:01:13;10.13;;;7.75;;
23015;SDS011;11674;52.428;13.584;2023-08-06T07:06:21;8.15;;;7.35;;
23015;SDS011;11674;52.428;13.584;2023-08-06T07:11:28;10.35;;;8.23;;
23015;SDS011;11674;52.428;13.584;2023-08-06T07:16:35;7.72;;;6.35;;
23015;SDS011;11674;52.428;13.584;2023-08-06T07:21:42;7.72;;;6.10;;
23015;SDS011;11674;52.428;13.584;2023-08-06T07:26:53;8.32;;;6.70;;
23015;SDS011;11674;52.428;13.584;2023-08-06T07:31:59;8.73;;;6.93;;
23015;SDS011;11674;52.428;13.584;2023-08-06T07:37:06;9.77;;;7.30;;
23015;SDS011;11674;52.428;13.584;2023-08-06T07:42:13;7.63;;;6.82;;
23015;SDS011;11674;52.428;13.584;2023-08-06T07:47:20;8.27;;;6.93;;
23015;SDS011;11674;52.428;13.584;2023-08-06T07:52:27;9.02;;;7.43;;
23015;SDS011;11674;52.428;13.584;2023-08-06T07:57:34;9.63;;;7.38;;
23015;SDS011;11674;52.428;13.584;2023-08-06T08:02:41;13.32;;;7.90;;
23015;SDS011;11674;52.428;13.584;2023-08-06T08:07:48;8.98;;;7.70;;
23015;SDS011;11674;52.428;13.584;2023-08-06T08:12:55;11.18;;;7.63;;
23015;SDS011;11674;52.428;13.584;2023-08-06T08:18:02;12.13;;;8.20;;
23015;SDS011;11674;52.428;13.584;2023-08-06T08:23:09;10.85;;;7.88;;
23015;SDS011;11674;52.428;13.584;2023-08-06T08:28:16;8.55;;;7.40;;
23015;SDS011;11674;52.428;13.584;2023-08-06T08:33:23;10.60;;;8.15;;
23015;SDS011;11674;52.428;13.584;2023-08-06T08:38:30;9.55;;;8.02;;
23015;SDS011;11674;52.428;13.584;2023-08-06T08:43:37;8.73;;;7.47;;
23015;SDS011;11674;52.428;13.584;2023-08-06T08:48:46;10.63;;;7.80;;
23015;SDS011;11674;52.428;13.584;2023-08-06T08:53:54;10.73;;;7.95;;
23015;SDS011;11674;52.428;13.584;2023-08-06T08:59:01;10.45;;;8.15;;
23015;SDS011;11674;52.428;13.584;2023-08-06T09:04:09;9.88;;;7.68;;
23015;SDS011;11674;52.428;13.584;2023-08-06T09:09:17;8.98;;;8.07;;
23015;SDS011;11674;52.428;13.584;2023-08-06T09:14:31;10.65;;;9.00;;
23015;SDS011;11674;52.428;13.584;2023-08-06T09:19:41;10.90;;;9.02;;
23015;SDS011;11674;52.428;13.584;2023-08-06T09:24:48;12.20;;;9.32;;
23015;SDS011;11674;52.428;13.584;2023-08-06T09:29:55;12.18;;;8.85;;
23015;SDS011;11674;52.428;13.584;2023-08-06T09:35:02;11.40;;;9.38;;
23015;SDS011;11674;52.428;13.584;2023-08-06T09:40:42;9.85;;;8.80;;
23015;SDS011;11674;52.428;13.584;2023-08-06T09:45:42;11.18;;;8.13;;
23015;SDS011;11674;52.428;13.584;2023-08-06T09:50:49;10.90;;;8.90;;
23015;SDS011;11674;52.428;13.584;2023-08-06T09:55:56;10.60;;;9.45;;
23015;SDS011;11674;52.428;13.584;2023-08-06T10:01:03;10.57;;;9.23;;
23015;SDS011;11674;52.428;13.584;2023-08-06T10:06:10;12.25;;;10.50;;
23015;SDS011;11674;52.428;13.584;2023-08-06T10:11:17;7.57;;;6.10;;
23015;SDS011;11674;52.428;13.584;2023-08-06T10:16:28;6.63;;;5.87;;
23015;SDS011;11674;52.428;13.584;2023-08-06T10:21:39;10.20;;;7.28;;
23015;SDS011;11674;52.428;13.584;2023-08-06T10:26:46;7.93;;;5.72;;
23015;SDS011;11674;52.428;13.584;2023-08-06T10:31:54;6.05;;;5.18;;
23015;SDS011;11674;52.428;13.584;2023-08-06T10:37:01;3.88;;;3.17;;
23015;SDS011;11674;52.428;13.584;2023-08-06T10:42:19;4.38;;;3.85;;
23015;SDS011;11674;52.428;13.584;2023-08-06T10:47:28;5.45;;;3.30;;
23015;SDS011;11674;52.428;13.584;2023-08-06T10:52:35;5.32;;;3.95;;
23015;SDS011;11674;52.428;13.584;2023-08-06T10:57:42;5.13;;;3.88;;
23015;SDS011;11674;52.428;13.584;2023-08-06T11:02:50;5.68;;;4.35;;
23015;SDS011;11674;52.428;13.584;2023-08-06T11:07:58;7.18;;;4.70;;
23015;SDS011;11674;52.428;13.584;2023-08-06T11:13:05;9.02;;;6.43;;
23015;SDS011;11674;52.428;13.584;2023-08-06T11:18:12;5.80;;;4.75;;
23015;SDS011;11674;52.428;13.584;2023-08-06T11:23:19;5.22;;;3.67;;
23015;SDS011;11674;52.428;13.584;2023-08-06T11:28:27;6.47;;;4.20;;
23015;SDS011;11674;52.428;13.584;2023-08-06T11:33:33;4.70;;;4.20;;
23015;SDS011;11674;52.428;13.584;2023-08-06T11:38:40;7.20;;;4.00;;
23015;SDS011;11674;52.428;13.584;2023-08-06T11:43:47;4.05;;;3.63;;
23015;SDS011;11674;52.428;13.584;2023-08-06T11:48:55;5.50;;;3.95;;
23015;SDS011;11674;52.428;13.584;2023-08-06T11:54:02;5.72;;;3.90;;
23015;SDS011;11674;52.428;13.584;2023-08-06T11:59:09;4.85;;;4.35;;
23015;SDS011;11674;52.428;13.584;2023-08-06T12:04:16;6.22;;;4.30;;
23015;SDS011;11674;52.428;13.584;2023-08-06T12:09:23;5.15;;;4.53;;
23015;SDS011;11674;52.428;13.584;2023-08-06T12:14:30;7.28;;;5.10;;
23015;SDS011;11674;52.428;13.584;2023-08-06T12:19:37;9.07;;;6.32;;
23015;SDS011;11674;52.428;13.584;2023-08-06T12:24:45;9.90;;;7.50;;
23015;SDS011;11674;52.428;13.584;2023-08-06T12:29:52;6.07;;;5.47;;
23015;SDS011;11674;52.428;13.584;2023-08-06T12:34:59;5.82;;;5.15;;
23015;SDS011;11674;52.428;13.584;2023-08-06T12:40:06;7.47;;;5.72;;
23015;SDS011;11674;52.428;13.584;2023-08-06T12:45:13;7.82;;;6.47;;
23015;SDS011;11674;52.428;13.584;2023-08-06T12:50:20;9.27;;;6.50;;
23015;SDS011;11674;52.428;13.584;2023-08-06T12:55:27;8.20;;;6.78;;
23015;SDS011;11674;52.428;13.584;2023-08-06T13:00:34;9.40;;;6.95;;
23015;SDS011;11674;52.428;13.584;2023-08-06T13:05:41;9.98;;;8.50;;
23015;SDS011;11674;52.428;13.584;2023-08-06T13:10:48;10.73;;;8.90;;
23015;SDS011;11674;52.428;13.584;2023-08-06T13:15:55;12.43;;;10.02;;
23015;SDS011;11674;52.428;13.584;2023-08-06T13:21:02;9.80;;;7.93;;
23015;SDS011;11674;52.428;13.584;2023-08-06T13:26:09;10.27;;;8.88;;
23015;SDS011;11674;52.428;13.584;2023-08-06T13:31:16;9.27;;;7.93;;
23015;SDS011;11674;52.428;13.584;2023-08-06T13:36:24;10.30;;;8.98;;
23015;SDS011;11674;52.428;13.584;2023-08-06T13:41:32;12.35;;;9.00;;
23015;SDS011;11674;52.428;13.584;2023-08-06T13:46:40;10.40;;;9.07;;
23015;SDS011;11674;52.428;13.584;2023-08-06T13:51:47;12.40;;;8.43;;
23015;SDS011;11674;52.428;13.584;2023-08-06T13:56:54;11.50;;;8.68;;
23015;SDS011;11674;52.428;13.584;2023-08-06T14:02:02;11.85;;;7.85;;
23015;SDS011;11674;52.428;13.584;2023-08-06T14:07:08;10.23;;;8.25;;
23015;SDS011;11674;52.428;13.584;2023-08-06T14:12:16;11.23;;;8.80;;
23015;SDS011;11674;52.428;13.584;2023-08-06T14:17:22;10.25;;;7.93;;
23015;SDS011;11674;52.428;13.584;2023-08-06T14:22:30;11.20;;;8.20;;
23015;SDS011;11674;52.428;13.584;2023-08-06T14:27:37;10.13;;;7.75;;
23015;SDS011;11674;52.428;13.584;2023-08-06T14:32:44;8.82;;;7.40;;
23015;SDS011;11674;52.428;13.584;2023-08-06T14:37:51;10.93;;;8.48;;
23015;SDS011;11674;52.428;13.584;2023-08-06T14:42:59;14.57;;;8.48;;
23015;SDS011;11674;52.428;13.584;2023-08-06T14:48:16;9.55;;;7.53;;
23015;SDS011;11674;52.428;13.584;2023-08-06T14:53:24;9.07;;;7.25;;
23015;SDS011;11674;52.428;13.584;2023-08-06T14:58:30;11.25;;;6.70;;
23015;SDS011;11674;52.428;13.584;2023-08-06T15:03:38;6.82;;;4.90;;
23015;SDS011;11674;52.428;13.584;2023-08-06T15:08:45;6.60;;;3.67;;
23015;SDS011;11674;52.428;13.584;2023-08-06T15:13:52;6.47;;;3.33;;
23015;SDS011;11674;52.428;13.584;2023-08-06T15:18:59;4.80;;;3.10;;
23015;SDS011;11674;52.428;13.584;2023-08-06T15:24:06;4.15;;;2.95;;
23015;SDS011;11674;52.428;13.584;2023-08-06T15:29:13;4.55;;;2.63;;
23015;SDS011;11674;52.428;13.584;2023-08-06T15:34:20;4.00;;;2.88;;
23015;SDS011;11674;52.428;13.584;2023-08-06T15:39:27;4.30;;;3.00;;
23015;SDS011;11674;52.428;13.584;2023-08-06T15:44:34;4.07;;;2.90;;
23015;SDS011;11674;52.428;13.584;2023-08-06T15:49:47;5.80;;;3.20;;
23015;SDS011;11674;52.428;13.584;2023-08-06T15:54:55;7.53;;;3.70;;
23015;SDS011;11674;52.428;13.584;2023-08-06T16:00:02;7.65;;;4.57;;
23015;SDS011;11674;52.428;13.584;2023-08-06T16:05:13;6.90;;;4.20;;
23015;SDS011;11674;52.428;13.584;2023-08-06T16:10:20;6.20;;;2.78;;
23015;SDS011;11674;52.428;13.584;2023-08-06T16:15:27;5.53;;;2.90;;
23015;SDS011;11674;52.428;13.584;2023-08-06T16:20:44;5.07;;;2.88;;
23015;SDS011;11674;52.428;13.584;2023-08-06T16:25:51;4.43;;;2.65;;
23015;SDS011;11674;52.428;13.584;2023-08-06T16:30:58;4.32;;;2.83;;
23015;SDS011;11674;52.428;13.584;2023-08-06T16:36:05;3.78;;;2.55;;
23015;SDS011;11674;52.428;13.584;2023-08-06T16:41:12;4.40;;;2.33;;
23015;SDS011;11674;52.428;13.584;2023-08-06T16:46:19;8.50;;;5.75;;
23015;SDS011;11674;52.428;13.584;2023-08-06T16:51:26;4.40;;;2.20;;
23015;SDS011;11674;52.428;13.584;2023-08-06T16:56:33;3.30;;;2.85;;
23015;SDS011;11674;52.428;13.584;2023-08-06T17:01:40;4.20;;;2.83;;
23015;SDS011;11674;52.428;13.584;2023-08-06T17:06:47;4.38;;;2.75;;
23015;SDS011;11674;52.428;13.584;2023-08-06T17:11:54;3.83;;;2.78;;
23015;SDS011;11674;52.428;13.584;2023-08-06T17:17:01;3.42;;;2.80;;
23015;SDS011;11674;52.428;13.584;2023-08-06T17:22:08;3.90;;;3.05;;
23015;SDS011;11674;52.428;13.584;2023-08-06T17:27:15;3.60;;;2.80;;
23015;SDS011;11674;52.428;13.584;2023-08-06T17:32:22;5.93;;;2.65;;
23015;SDS011;11674;52.428;13.584;2023-08-06T17:37:29;4.72;;;2.42;;
23015;SDS011;11674;52.428;13.584;2023-08-06T17:42:36;4.75;;;2.25;;
23015;SDS011;11674;52.428;13.584;2023-08-06T17:47:43;12.07;;;6.40;;
23015;SDS011;11674;52.428;13.584;2023-08-06T17:52:50;4.22;;;2.50;;
23015;SDS011;11674;52.428;13.584;2023-08-06T17:57:57;8.40;;;3.30;;
23015;SDS011;11674;52.428;13.584;2023-08-06T18:03:04;3.55;;;2.40;;
23015;SDS011;11674;52.428;13.584;2023-08-06T18:08:11;4.93;;;2.58;;
23015;SDS011;11674;52.428;13.584;2023-08-06T18:13:18;3.10;;;2.40;;
23015;SDS011;11674;52.428;13.584;2023-08-06T18:18:25;4.50;;;2.25;;
23015;SDS011;11674;52.428;13.584;2023-08-06T18:23:32;4.18;;;2.58;;
23015;SDS011;11674;52.428;13.584;2023-08-06T18:28:39;3.78;;;2.58;;
23015;SDS011;11674;52.428;13.584;2023-08-06T18:33:46;7.18;;;4.15;;
23015;SDS011;11674;52.428;13.584;2023-08-06T18:38:53;5.00;;;2.60;;
23015;SDS011;11674;52.428;13.584;2023-08-06T18:44:00;9.52;;;2.92;;
23015;SDS011;11674;52.428;13.584;2023-08-06T18:49:07;3.78;;;2.45;;
23015;SDS011;11674;52.428;13.584;2023-08-06T18:54:14;4.05;;;2.40;;
23015;SDS011;11674;52.428;13.584;2023-08-06T18:59:21;3.83;;;2.42;;
23015;SDS011;11674;52.428;13.584;2023-08-06T19:04:28;6.07;;;2.60;;
23015;SDS011;11674;52.428;13.584;2023-08-06T19:09:35;3.00;;;2.65;;
23015;SDS011;11674;52.428;13.584;2023-08-06T19:14:42;4.45;;;3.03;;
23015;SDS011;11674;52.428;13.584;2023-08-06T19:19:49;5.47;;;3.17;;
23015;SDS011;11674;52.428;13.584;2023-08-06T19:24:56;5.45;;;3.03;;
23015;SDS011;11674;52.428;13.584;2023-08-06T19:30:03;8.63;;;2.50;;
23015;SDS011;11674;52.428;13.584;2023-08-06T19:35:10;6.38;;;3.28;;
23015;SDS011;11674;52.428;13.584;2023-08-06T19:40:17;6.18;;;2.42;;
23015;SDS011;11674;52.428;13.584;2023-08-06T19:45:24;6.15;;;2.80;;
23015;SDS011;11674;52.428;13.584;2023-08-06T19:50:31;8.02;;;3.00;;
23015;SDS011;11674;52.428;13.584;2023-08-06T19:55:38;5.90;;;2.90;;
23015;SDS011;11674;52.428;13.584;2023-08-06T20:00:45;4.57;;;2.83;;
23015;SDS011;11674;52.428;13.584;2023-08-06T20:05:52;5.07;;;3.17;;
23015;SDS011;11674;52.428;13.584;2023-08-06T20:10:59;7.05;;;3.83;;
23015;SDS011;11674;52.428;13.584;2023-08-06T20:16:06;6.82;;;4.05;;
23015;SDS011;11674;52.428;13.584;2023-08-06T20:21:13;5.53;;;3.92;;
23015;SDS011;11674;52.428;13.584;2023-08-06T20:26:20;6.97;;;4.47;;
23015;SDS011;11674;52.428;13.584;2023-08-06T20:31:27;10.32;;;4.30;;
23015;SDS011;11674;52.428;13.584;2023-08-06T20:36:34;7.07;;;4.95;;
23015;SDS011;11674;52.428;13.584;2023-08-06T20:41:41;7.05;;;5.03;;
23015;SDS011;11674;52.428;13.584;2023-08-06T20:46:48;8.95;;;5.65;;
23015;SDS011;11674;52.428;13.584;2023-08-06T20:51:55;8.95;;;5.72;;
23015;SDS011;11674;52.428;13.584;2023-08-06T20:57:02;7.85;;;5.53;;
23015;SDS011;11674;52.428;13.584;2023-08-06T21:02:09;12.55;;;5.63;;
23015;SDS011;11674;52.428;13.584;2023-08-06T21:07:16;10.45;;;6.55;;
23015;SDS011;11674;52.428;13.584;2023-08-06T21:12:23;6.93;;;4.05;;
23015;SDS011;11674;52.428;13.584;2023-08-06T21:17:30;7.80;;;3.40;;
23015;SDS011;11674;52.428;13.584;2023-08-06T21:22:37;5.28;;;3.22;;
23015;SDS011;11674;52.428;13.584;2023-08-06T21:27:44;5.13;;;2.65;;
23015;SDS011;11674;52.428;13.584;2023-08-06T21:32:51;4.70;;;3.10;;
23015;SDS011;11674;52.428;13.584;2023-08-06T21:37:58;4.65;;;3.17;;
23015;SDS011;11674;52.428;13.584;2023-08-06T21:43:05;11.50;;;6.53;;
23015;SDS011;11674;52.428;13.584;2023-08-06T21:48:14;4.53;;;2.85;;
23015;SDS011;11674;52.428;13.584;2023-08-06T21:53:21;2.25;;;1.75;;
23015;SDS011;11674;52.428;13.584;2023-08-06T21:58:28;3.33;;;2.13;;
23015;SDS011;11674;52.428;13.584;2023-08-06T22:03:35;2.42;;;2.03;;
23015;SDS011;11674;52.428;13.584;2023-08-06T22:08:43;10.30;;;6.38;;
23015;SDS011;11674;52.428;13.584;2023-08-06T22:13:50;12.35;;;5.45;;
23015;SDS011;11674;52.428;13.584;2023-08-06T22:18:57;8.15;;;3.17;;
23015;SDS011;11674;52.428;13.584;2023-08-06T22:24:04;5.10;;;2.13;;
23015;SDS011;11674;52.428;13.584;2023-08-06T22:29:11;5.47;;;2.20;;
23015;SDS011;11674;52.428;13.584;2023-08-06T22:34:18;3.70;;;1.98;;
23015;SDS011;11674;52.428;13.584;2023-08-06T22:39:25;2.17;;;1.70;;
23015;SDS011;11674;52.428;13.584;2023-08-06T22:44:32;4.50;;;3.17;;
23015;SDS011;11674;52.428;13.584;2023-08-06T22:49:39;3.80;;;2.20;;
23015;SDS011;11674;52.428;13.584;2023-08-06T22:54:46;2.50;;;1.45;;
23015;SDS011;11674;52.428;13.584;2023-08-06T22:59:53;3.53;;;1.90;;
23015;SDS011;11674;52.428;13.584;2023-08-06T23:05:01;4.55;;;2.58;;
23015;SDS011;11674;52.428;13.584;2023-08-06T23:10:08;4.35;;;2.10;;
23015;SDS011;11674;52.428;13.584;2023-08-06T23:15:15;3.22;;;2.08;;
23015;SDS011;11674;52.428;13.584;2023-08-06T23:20:22;9.40;;;5.55;;
23015;SDS011;11674;52.428;13.584;2023-08-06T23:25:29;3.35;;;2.13;;
23015;SDS011;11674;52.428;13.584;2023-08-06T23:30:36;5.05;;;3.30;;
23015;SDS011;11674;52.428;13.584;2023-08-06T23:35:43;3.67;;;2.50;;
23015;SDS011;11674;52.428;13.584;2023-08-06T23:40:50;8.90;;;4.82;;
23015;SDS011;11674;52.428;13.584;2023-08-06T23:45:57;7.32;;;3.78;;
23015;SDS011;11674;52.428;13.584;2023-08-06T23:51:04;4.60;;;2.72;;
23015;SDS011;11674;52.428;13.584;2023-08-06T23:56:11;5.70;;;3.67;;
